createdAt,value
2023-03-07T00:01:47.863Z,97046.02
2023-03-07T00:04:14.625Z,97044.79
2023-03-07T00:06:41.385Z,97043.66
2023-03-07T00:09:08.325Z,97041.94
2023-03-07T00:11:35.062Z,97043.16
2023-03-07T00:14:01.838Z,97042.05
2023-03-07T00:16:28.776Z,97040.23
2023-03-07T00:18:55.806Z,97039.88
2023-03-07T00:21:23.619Z,97038.70
2023-03-07T00:23:52.998Z,97040.81
2023-03-07T00:26:22.455Z,97038.99
2023-03-07T00:28:51.764Z,97032.27
2023-03-07T00:31:19.872Z,97031.02
2023-03-07T00:33:46.716Z,97035.19
2023-03-07T00:36:17.095Z,97029.79
2023-03-07T00:38:44.769Z,97021.84
2023-03-07T00:41:14.588Z,97023.04
2023-03-07T00:43:43.211Z,97021.34
2023-03-07T00:46:10.784Z,97022.31
2023-03-07T00:48:39.433Z,97018.14
2023-03-07T00:51:08.726Z,97011.94
2023-03-07T00:53:36.146Z,97010.81
2023-03-07T00:56:10.146Z,97006.46
2023-03-07T00:58:37.344Z,97005.27
2023-03-07T01:01:07.126Z,97004.13
2023-03-07T01:03:34.685Z,97001.23
2023-03-07T01:06:11.958Z,97000.09
2023-03-07T01:08:38.840Z,96998.28
2023-03-07T01:11:07.470Z,96997.00
2023-03-07T01:13:35.727Z,96994.05
2023-03-07T01:16:19.056Z,96990.92
2023-03-07T01:18:49.549Z,96991.07
2023-03-07T01:21:20.521Z,96988.70
2023-03-07T01:23:47.400Z,96988.77
2023-03-07T01:26:19.378Z,96996.06
2023-03-07T01:28:46.616Z,96990.76
2023-03-07T01:31:14.104Z,96985.94
2023-03-07T01:33:41.319Z,96985.31
2023-03-07T01:36:21.061Z,96984.66
2023-03-07T01:38:49.257Z,96980.33
2023-03-07T01:41:17.076Z,96977.39
2023-03-07T01:43:43.819Z,96976.70
2023-03-07T01:46:19.937Z,96975.27
2023-03-07T01:48:56.022Z,96973.30
2023-03-07T01:51:22.974Z,96969.77
2023-03-07T01:53:52.103Z,96968.27
2023-03-07T01:56:20.824Z,96964.42
2023-03-07T01:58:48.007Z,96968.33
2023-03-07T02:01:16.430Z,96963.25
2023-03-07T02:03:52.325Z,96962.63
2023-03-07T02:06:19.970Z,96959.14
2023-03-07T02:08:49.517Z,96961.29
2023-03-07T02:11:17.094Z,96956.79
2023-03-07T02:13:44.049Z,96956.91
2023-03-07T02:16:10.970Z,96958.86
2023-03-07T02:18:45.739Z,96959.52
2023-03-07T02:21:19.127Z,96961.55
2023-03-07T02:23:54.979Z,96960.41
2023-03-07T02:26:30.761Z,96960.77
2023-03-07T02:28:59.718Z,96963.10
2023-03-07T02:31:26.880Z,96966.52
2023-03-07T02:33:53.705Z,96962.80
2023-03-07T02:36:32.542Z,96967.33
2023-03-07T02:39:01.331Z,96963.38
2023-03-07T02:41:32.278Z,96964.15
2023-03-07T02:44:00.324Z,96961.10
2023-03-07T02:46:27.122Z,96956.28
2023-03-07T02:48:53.999Z,96955.75
2023-03-07T02:51:20.817Z,96954.73
2023-03-07T02:53:47.925Z,96956.09
2023-03-07T02:56:15.074Z,96958.14
2023-03-07T02:58:41.833Z,96958.05
2023-03-07T03:01:08.655Z,96956.53
2023-03-07T03:03:35.398Z,96956.39
2023-03-07T03:06:02.100Z,96959.41
2023-03-07T03:08:29.217Z,96961.89
2023-03-07T03:10:56.927Z,96955.48
2023-03-07T03:13:23.698Z,96956.25
2023-03-07T03:15:55.585Z,96951.84
2023-03-07T03:18:22.426Z,96952.95
2023-03-07T03:20:49.201Z,96954.80
2023-03-07T03:23:35.197Z,96956.69
2023-03-07T03:26:07.795Z,96960.52
2023-03-07T03:29:03.065Z,96959.69
2023-03-07T03:31:30.601Z,96956.46
2023-03-07T03:33:58.761Z,96955.81
2023-03-07T03:36:27.083Z,96960.61
2023-03-07T03:38:55.610Z,96960.55
2023-03-07T03:41:23.994Z,96956.16
2023-03-07T03:43:51.444Z,96956.26
2023-03-07T03:46:21.722Z,96958.05
2023-03-07T03:48:55.948Z,96954.34
2023-03-07T03:51:24.386Z,96955.11
2023-03-07T03:53:51.653Z,96960.52
2023-03-07T03:56:21.155Z,96962.33
2023-03-07T03:58:52.718Z,96963.61
2023-03-07T04:01:21.410Z,96965.84
2023-03-07T04:03:51.221Z,96964.15
2023-03-07T04:06:21.433Z,96965.06
2023-03-07T04:08:49.010Z,96971.44
2023-03-07T04:11:15.833Z,96968.23
2023-03-07T04:13:42.864Z,96968.34
2023-03-07T04:16:10.410Z,96969.82
2023-03-07T04:18:37.326Z,96969.85
2023-03-07T04:21:06.161Z,96964.11
2023-03-07T04:23:33.537Z,96967.20
2023-03-07T04:26:02.575Z,96965.20
2023-03-07T04:28:46.230Z,96968.15
2023-03-07T04:31:24.639Z,96966.96
2023-03-07T04:33:52.753Z,96965.83
2023-03-07T04:36:20.495Z,96964.26
2023-03-07T04:38:56.572Z,96967.58
2023-03-07T04:41:28.344Z,96964.45
2023-03-07T04:43:57.582Z,96964.80
2023-03-07T04:46:26.360Z,96964.58
2023-03-07T04:48:53.119Z,96961.58
2023-03-07T04:51:21.098Z,96959.98
2023-03-07T04:53:48.534Z,96962.35
2023-03-07T04:56:18.029Z,96959.83
2023-03-07T04:58:45.438Z,96959.94
2023-03-07T05:01:12.780Z,96958.84
2023-03-07T05:03:39.704Z,96960.91
2023-03-07T05:06:10.755Z,96958.60
2023-03-07T05:08:37.723Z,96958.65
2023-03-07T05:11:04.892Z,96956.91
2023-03-07T05:13:31.641Z,96960.00
2023-03-07T05:15:59.556Z,96959.95
2023-03-07T05:18:27.741Z,96959.77
2023-03-07T05:20:54.567Z,96959.14
2023-03-07T05:23:21.679Z,96954.77
2023-03-07T05:25:48.527Z,96961.20
2023-03-07T05:28:18.005Z,96960.06
2023-03-07T05:30:46.260Z,96959.70
2023-03-07T05:33:21.790Z,96960.90
2023-03-07T05:35:48.606Z,96960.77
2023-03-07T05:38:15.370Z,96959.36
2023-03-07T05:40:42.472Z,96960.95
2023-03-07T05:43:09.289Z,96961.11
2023-03-07T05:45:36.645Z,96963.13
2023-03-07T05:48:03.493Z,96962.02
2023-03-07T05:51:11.488Z,96959.30
2023-03-07T05:53:39.803Z,96961.73
2023-03-07T05:56:08.521Z,96961.84
2023-03-07T05:58:35.376Z,96960.34
2023-03-07T06:01:03.911Z,96958.24
2023-03-07T06:03:31.227Z,96958.97
2023-03-07T06:05:58.779Z,96954.52
2023-03-07T06:08:39.808Z,96960.39
2023-03-07T06:11:06.733Z,96956.84
2023-03-07T06:13:33.489Z,96960.67
2023-03-07T06:16:00.261Z,96953.77
2023-03-07T06:18:27.127Z,96959.33
2023-03-07T06:21:03.325Z,96958.39
2023-03-07T06:23:32.213Z,96957.58
2023-03-07T06:26:00.111Z,96956.29
2023-03-07T06:28:27.485Z,96953.83
2023-03-07T06:30:54.664Z,96958.10
2023-03-07T06:33:21.415Z,96961.40
2023-03-07T06:35:48.646Z,96962.77
2023-03-07T06:38:17.396Z,96962.48
2023-03-07T06:40:44.174Z,96962.96
2023-03-07T06:43:12.737Z,96964.60
2023-03-07T06:45:39.472Z,96967.80
2023-03-07T06:48:06.459Z,96968.00
2023-03-07T06:50:35.507Z,96967.96
2023-03-07T06:53:02.681Z,96967.22
2023-03-07T06:55:29.615Z,96967.84
2023-03-07T06:57:56.365Z,96968.77
2023-03-07T07:00:23.153Z,96967.42
2023-03-07T07:02:50.405Z,96964.84
2023-03-07T07:05:17.393Z,96961.84
2023-03-07T07:07:44.220Z,96965.30
2023-03-07T07:10:11.932Z,96968.52
2023-03-07T07:12:38.720Z,96961.80
2023-03-07T07:15:06.169Z,96960.64
2023-03-07T07:17:35.893Z,96960.83
2023-03-07T07:20:07.329Z,96956.49
2023-03-07T07:22:34.353Z,96958.02
2023-03-07T07:25:01.227Z,96958.75
2023-03-07T07:27:28.770Z,96956.77
2023-03-07T07:29:55.727Z,96953.73
2023-03-07T07:32:22.641Z,96957.63
2023-03-07T07:34:49.672Z,96960.37
2023-03-07T07:37:16.535Z,96958.52
2023-03-07T07:39:44.306Z,96954.80
2023-03-07T07:42:14.122Z,96953.92
2023-03-07T07:44:40.892Z,96949.58
2023-03-07T07:47:07.850Z,96948.96
2023-03-07T07:49:35.679Z,96947.41
2023-03-07T07:52:02.555Z,96944.70
2023-03-07T07:54:29.551Z,96942.27
2023-03-07T07:56:58.333Z,96944.91
2023-03-07T07:59:25.282Z,96947.02
2023-03-07T08:01:52.211Z,96945.33
2023-03-07T08:04:19.662Z,96948.38
2023-03-07T08:06:46.698Z,96946.48
2023-03-07T08:09:14.822Z,96944.92
2023-03-07T08:11:42.864Z,96940.83
2023-03-07T08:14:10.182Z,96941.23
2023-03-07T08:16:37.195Z,96939.29
2023-03-07T08:19:04.244Z,96939.88
2023-03-07T08:21:31.175Z,96934.40
2023-03-07T08:23:58.091Z,96932.91
2023-03-07T08:26:25.245Z,96929.75
2023-03-07T08:28:52.125Z,96931.33
2023-03-07T08:31:23.772Z,96931.36
2023-03-07T08:33:52.077Z,96926.17
2023-03-07T08:36:19.378Z,96922.52
2023-03-07T08:38:52.464Z,96927.89
2023-03-07T08:41:21.436Z,96925.27
2023-03-07T08:43:49.001Z,96921.80
2023-03-07T08:46:16.219Z,96916.70
2023-03-07T08:48:43.238Z,96919.17
2023-03-07T08:51:15.239Z,96915.80
2023-03-07T08:53:43.450Z,96916.09
2023-03-07T08:56:17.246Z,96918.27
2023-03-07T08:58:44.649Z,96918.36
2023-03-07T09:01:13.246Z,96920.53
2023-03-07T09:03:40.254Z,96915.20
2023-03-07T09:06:07.181Z,96914.75
2023-03-07T09:08:34.113Z,96916.00
2023-03-07T09:11:03.933Z,96923.23
2023-03-07T09:13:31.997Z,96920.99
2023-03-07T09:16:00.549Z,96919.48
2023-03-07T09:18:27.454Z,96920.92
2023-03-07T09:20:54.400Z,96916.27
2023-03-07T09:23:21.441Z,96917.46
2023-03-07T09:25:48.444Z,96913.75
2023-03-07T09:28:15.276Z,96912.61
2023-03-07T09:30:42.234Z,96904.50
2023-03-07T09:33:09.193Z,96906.30
2023-03-07T09:35:36.071Z,96903.79
2023-03-07T09:38:03.168Z,96905.02
2023-03-07T09:40:30.187Z,96900.52
2023-03-07T09:43:11.268Z,96898.73
2023-03-07T09:46:00.422Z,96894.27
2023-03-07T09:48:55.731Z,96889.92
2023-03-07T09:51:26.726Z,96884.09
2023-03-07T09:53:58.413Z,96879.92
2023-03-07T09:56:32.996Z,96874.72
2023-03-07T09:59:24.491Z,96872.80
2023-03-07T10:02:06.305Z,96871.78
2023-03-07T10:04:56.046Z,96879.95
2023-03-07T10:07:25.041Z,96872.28
2023-03-07T10:09:57.697Z,96871.77
2023-03-07T10:12:54.404Z,96869.62
2023-03-07T10:15:46.948Z,96869.13
2023-03-07T10:18:32.057Z,96867.93
2023-03-07T10:21:13.264Z,96867.04
2023-03-07T10:24:06.016Z,96866.22
2023-03-07T10:26:45.324Z,96858.31
2023-03-07T10:29:18.280Z,96866.55
2023-03-07T10:32:12.990Z,96866.31
2023-03-07T10:34:40.911Z,96865.92
2023-03-07T10:37:10.910Z,96862.39
2023-03-07T10:39:48.461Z,96853.79
2023-03-07T10:42:18.067Z,96845.64
2023-03-07T10:44:46.418Z,96845.54
2023-03-07T10:47:24.496Z,96842.35
2023-03-07T10:49:56.854Z,96835.08
2023-03-07T10:52:36.491Z,96833.63
2023-03-07T10:55:31.149Z,96828.88
2023-03-07T10:58:12.889Z,96820.95
2023-03-07T11:00:40.771Z,96821.55
2023-03-07T11:03:46.055Z,96822.44
2023-03-07T11:07:03.100Z,96817.44
2023-03-07T11:09:35.206Z,96818.23
2023-03-07T11:12:05.258Z,96816.37
2023-03-07T11:14:50.703Z,96808.48
2023-03-07T11:17:39.808Z,96799.61
2023-03-07T11:20:31.870Z,96805.98
2023-03-07T11:23:17.159Z,96805.58
2023-03-07T11:25:44.864Z,96797.43
2023-03-07T11:28:30.262Z,96797.07
2023-03-07T11:31:05.118Z,96792.73
2023-03-07T11:33:44.370Z,96791.33
2023-03-07T11:36:30.391Z,96789.96
2023-03-07T11:39:15.354Z,96788.71
2023-03-07T11:41:57.468Z,96781.55
2023-03-07T11:44:52.064Z,96781.81
2023-03-07T11:47:21.927Z,96771.23
2023-03-07T11:50:09.416Z,96773.14
2023-03-07T11:52:53.171Z,96770.69
2023-03-07T11:55:36.075Z,96768.57
2023-03-07T11:58:19.733Z,96766.98
2023-03-07T12:01:11.973Z,96759.95
2023-03-07T12:03:56.095Z,96753.88
2023-03-07T12:06:31.808Z,96764.88
2023-03-07T12:09:07.742Z,96768.67
2023-03-07T12:11:57.013Z,96770.35
2023-03-07T12:14:51.842Z,96768.73
2023-03-07T12:17:48.649Z,96765.02
2023-03-07T12:20:25.024Z,96759.84
2023-03-07T12:23:05.860Z,96757.46
2023-03-07T12:25:43.736Z,96755.85
2023-03-07T12:28:27.953Z,96753.77
2023-03-07T12:31:11.888Z,96750.52
2023-03-07T12:33:54.076Z,96748.08
2023-03-07T12:36:34.251Z,96746.89
2023-03-07T12:39:13.146Z,96743.23
2023-03-07T12:42:03.045Z,96742.98
2023-03-07T12:44:36.605Z,96744.77
2023-03-07T12:47:31.240Z,96742.12
2023-03-07T12:50:07.506Z,96739.77
2023-03-07T12:52:47.358Z,96744.05
2023-03-07T12:55:37.545Z,96749.05
2023-03-07T12:58:21.851Z,96746.80
2023-03-07T13:00:54.725Z,96739.98
2023-03-07T13:03:42.509Z,96740.48
2023-03-07T13:06:20.143Z,96741.10
2023-03-07T13:08:49.943Z,96741.77
2023-03-07T13:11:17.759Z,96742.95
2023-03-07T13:13:44.718Z,96739.74
2023-03-07T13:16:31.228Z,96732.83
2023-03-07T13:19:29.138Z,96729.05
2023-03-07T13:21:56.028Z,96730.81
2023-03-07T13:24:40.966Z,96727.23
2023-03-07T13:27:20.171Z,96730.77
2023-03-07T13:30:21.802Z,96724.00
2023-03-07T13:32:49.030Z,96728.47
2023-03-07T13:35:32.647Z,96724.15
2023-03-07T13:38:27.813Z,96725.36
2023-03-07T13:41:00.453Z,96713.42
2023-03-07T13:43:28.376Z,96713.51
2023-03-07T13:46:02.416Z,96712.91
2023-03-07T13:48:29.461Z,96706.23
2023-03-07T13:50:59.349Z,96708.55
2023-03-07T13:53:30.161Z,96702.02
2023-03-07T13:56:10.954Z,96702.07
2023-03-07T13:58:49.589Z,96701.41
2023-03-07T14:01:24.114Z,96700.13
2023-03-07T14:04:05.295Z,96696.33
2023-03-07T14:06:49.438Z,96696.83
2023-03-07T14:09:21.354Z,96695.14
2023-03-07T14:12:11.867Z,96690.97
2023-03-07T14:15:01.733Z,96687.20
2023-03-07T14:17:28.933Z,96688.90
2023-03-07T14:20:01.800Z,96687.23
2023-03-07T14:22:45.759Z,96683.64
2023-03-07T14:25:18.458Z,96680.42
2023-03-07T14:28:20.157Z,96681.01
2023-03-07T14:30:59.312Z,96678.39
2023-03-07T14:33:38.855Z,96675.68
2023-03-07T14:36:23.962Z,96674.06
2023-03-07T14:38:56.576Z,96672.89
2023-03-07T14:41:34.633Z,96672.68
2023-03-07T14:44:16.352Z,96669.02
2023-03-07T14:47:11.152Z,96668.73
2023-03-07T14:50:05.400Z,96675.02
2023-03-07T14:52:32.342Z,96675.02
2023-03-07T14:55:02.338Z,96671.38
2023-03-07T14:57:41.419Z,96672.47
2023-03-07T15:00:20.847Z,96673.81
2023-03-07T15:03:12.854Z,96673.00
2023-03-07T15:06:11.947Z,96665.25
2023-03-07T15:08:38.929Z,96665.08
2023-03-07T15:11:13.640Z,96656.04
2023-03-07T15:13:49.730Z,96654.20
2023-03-07T15:16:27.545Z,96651.77
2023-03-07T15:19:19.561Z,96650.79
2023-03-07T15:21:51.565Z,96651.41
2023-03-07T15:24:28.460Z,96643.45
2023-03-07T15:26:55.939Z,96643.54
2023-03-07T15:29:25.114Z,96636.27
2023-03-07T15:32:04.360Z,96630.98
2023-03-07T15:34:36.872Z,96636.71
2023-03-07T15:37:25.094Z,96638.94
2023-03-07T15:40:22.647Z,96633.95
2023-03-07T15:42:56.259Z,96634.27
2023-03-07T15:45:39.018Z,96635.50
2023-03-07T15:48:24.366Z,96634.80
2023-03-07T15:51:01.380Z,96634.84
2023-03-07T15:53:40.963Z,96639.36
2023-03-07T15:56:38.040Z,96639.50
2023-03-07T15:59:27.131Z,96635.42
2023-03-07T16:01:54.469Z,96630.82
2023-03-07T16:04:35.216Z,96637.58
2023-03-07T16:07:02.211Z,96640.67
2023-03-07T16:09:29.231Z,96640.91
2023-03-07T16:11:56.352Z,96645.06
2023-03-07T16:14:26.181Z,96642.70
2023-03-07T16:16:57.849Z,96647.85
2023-03-07T16:19:25.060Z,96643.90
2023-03-07T16:21:55.108Z,96640.63
2023-03-07T16:24:22.261Z,96640.53
2023-03-07T16:26:49.716Z,96637.20
2023-03-07T16:29:20.392Z,96637.30
2023-03-07T16:31:48.273Z,96632.72
2023-03-07T16:34:17.662Z,96635.90
2023-03-07T16:36:44.651Z,96632.52
2023-03-07T16:39:13.302Z,96632.73
2023-03-07T16:41:46.829Z,96638.32
2023-03-07T16:44:23.895Z,96637.29
2023-03-07T16:47:13.864Z,96641.17
2023-03-07T16:49:40.695Z,96639.55
2023-03-07T16:52:09.449Z,96636.04
2023-03-07T16:54:36.253Z,96641.23
2023-03-07T16:57:04.284Z,96643.44
2023-03-07T16:59:37.426Z,96644.63
2023-03-07T17:02:16.880Z,96644.41
2023-03-07T17:04:44.717Z,96641.85
2023-03-07T17:07:20.420Z,96640.80
2023-03-07T17:09:47.265Z,96638.11
2023-03-07T17:12:14.808Z,96640.67
2023-03-07T17:14:43.533Z,96638.64
2023-03-07T17:17:27.860Z,96643.23
2023-03-07T17:19:54.663Z,96641.42
2023-03-07T17:22:21.533Z,96645.49
2023-03-07T17:24:48.292Z,96649.58
2023-03-07T17:27:15.053Z,96653.67
2023-03-07T17:29:44.992Z,96659.88
2023-03-07T17:32:12.223Z,96660.73
2023-03-07T17:34:39.764Z,96661.86
2023-03-07T17:37:07.110Z,96659.50
2023-03-07T17:39:34.923Z,96653.75
2023-03-07T17:42:02.920Z,96654.28
2023-03-07T17:44:30.907Z,96650.80
2023-03-07T17:46:57.814Z,96649.30
2023-03-07T17:49:28.491Z,96647.33
2023-03-07T17:51:55.284Z,96644.89
2023-03-07T17:54:23.227Z,96638.06
2023-03-07T17:56:50.152Z,96639.45
2023-03-07T17:59:25.179Z,96637.55
2023-03-07T18:02:45.682Z,96638.61
2023-03-07T18:05:32.757Z,96634.45
2023-03-07T18:09:12.581Z,96629.69
2023-03-07T18:11:39.338Z,96622.73
2023-03-07T18:14:06.177Z,96618.92
2023-03-07T18:16:33.182Z,96616.11
2023-03-07T18:19:01.855Z,96616.52
2023-03-07T18:21:30.671Z,96614.02
2023-03-07T18:23:58.143Z,96610.10
2023-03-07T18:26:25.724Z,96610.17
2023-03-07T18:28:56.435Z,96607.22
2023-03-07T18:31:28.294Z,96606.52
2023-03-07T18:33:55.284Z,96602.13
2023-03-07T18:36:25.453Z,96602.52
2023-03-07T18:38:52.820Z,96599.73
2023-03-07T18:41:24.687Z,96591.35
2023-03-07T18:43:54.295Z,96593.96
2023-03-07T18:46:23.143Z,96595.55
2023-03-07T18:48:50.611Z,96590.66
2023-03-07T18:51:25.235Z,96589.13
2023-03-07T18:53:53.924Z,96586.75
2023-03-07T18:56:21.136Z,96582.70
2023-03-07T18:58:48.828Z,96582.09
2023-03-07T19:01:21.489Z,96582.19
2023-03-07T19:03:50.268Z,96581.02
2023-03-07T19:06:20.928Z,96579.27
2023-03-07T19:08:48.611Z,96583.79
2023-03-07T19:11:16.418Z,96585.17
2023-03-07T19:13:43.707Z,96584.81
2023-03-07T19:16:15.649Z,96582.54
2023-03-07T19:18:43.832Z,96581.27
2023-03-07T19:21:14.297Z,96576.06
2023-03-07T19:23:42.201Z,96574.85
2023-03-07T19:26:12.814Z,96573.00
2023-03-07T19:28:40.646Z,96572.48
2023-03-07T19:31:16.994Z,96571.43
2023-03-07T19:33:45.281Z,96568.98
2023-03-07T19:36:15.004Z,96567.24
2023-03-07T19:38:43.064Z,96568.48
2023-03-07T19:41:13.806Z,96565.73
2023-03-07T19:43:41.265Z,96569.05
2023-03-07T19:46:10.232Z,96567.77
2023-03-07T19:48:39.827Z,96568.47
2023-03-07T19:51:20.107Z,96567.80
2023-03-07T19:53:47.447Z,96561.95
2023-03-07T19:56:27.492Z,96560.06
2023-03-07T19:58:55.240Z,96560.70
2023-03-07T20:01:23.015Z,96559.88
2023-03-07T20:03:51.072Z,96559.14
2023-03-07T20:06:20.912Z,96557.92
2023-03-07T20:08:48.012Z,96556.39
2023-03-07T20:11:25.750Z,96555.74
2023-03-07T20:13:55.000Z,96554.37
2023-03-07T20:16:22.230Z,96561.58
2023-03-07T20:18:54.110Z,96562.11
2023-03-07T20:21:27.503Z,96558.77
2023-03-07T20:23:59.676Z,96555.11
2023-03-07T20:26:32.904Z,96557.79
2023-03-07T20:29:01.009Z,96555.13
2023-03-07T20:31:31.151Z,96551.24
2023-03-07T20:33:59.825Z,96549.12
2023-03-07T20:36:28.096Z,96549.95
2023-03-07T20:38:57.664Z,96543.95
2023-03-07T20:41:33.844Z,96543.66
2023-03-07T20:44:03.952Z,96546.34
2023-03-07T20:46:31.627Z,96544.60
2023-03-07T20:49:00.763Z,96545.89
2023-03-07T20:51:32.275Z,96546.21
2023-03-07T20:54:33.480Z,96544.71
2023-03-07T20:57:00.233Z,96540.14
2023-03-07T20:59:26.937Z,96542.08
2023-03-07T21:01:53.778Z,96544.14
2023-03-07T21:07:19.167Z,96534.69
2023-03-07T21:09:50.861Z,96535.81
2023-03-07T21:12:18.108Z,96535.66
2023-03-07T21:14:45.175Z,96533.70
2023-03-07T21:17:13.219Z,96532.23
2023-03-07T21:19:39.949Z,96533.58
2023-03-07T21:22:06.906Z,96531.05
2023-03-07T21:24:33.692Z,96531.50
2023-03-07T21:27:00.481Z,96527.19
2023-03-07T21:29:27.232Z,96527.66
2023-03-07T21:31:54.207Z,96526.22
2023-03-07T21:34:21.236Z,96533.64
2023-03-07T21:36:48.178Z,96530.38
2023-03-07T21:39:15.222Z,96530.30
2023-03-07T21:41:42.059Z,96527.80
2023-03-07T21:44:09.984Z,96526.95
2023-03-07T21:46:36.848Z,96526.29
2023-03-07T21:49:03.629Z,96523.83
2023-03-07T21:51:30.418Z,96525.77
2023-03-07T21:53:57.692Z,96518.85
2023-03-07T21:56:25.793Z,96515.38
2023-03-07T21:58:53.070Z,96520.46
2023-03-07T22:01:29.240Z,96525.59
2023-03-07T22:03:58.081Z,96530.61
2023-03-07T22:06:26.287Z,96523.20
2023-03-07T22:08:53.835Z,96526.98
2023-03-07T22:11:20.853Z,96533.09
2023-03-07T22:13:47.686Z,96529.20
2023-03-07T22:16:17.767Z,96532.21
2023-03-07T22:18:44.740Z,96531.02
2023-03-07T22:21:14.223Z,96531.71
2023-03-07T22:23:41.941Z,96533.48
2023-03-07T22:26:10.849Z,96530.84
2023-03-07T22:28:38.030Z,96525.50
2023-03-07T22:31:07.264Z,96527.29
2023-03-07T22:33:33.988Z,96520.23
2023-03-07T22:36:04.154Z,96516.61
2023-03-07T22:38:31.222Z,96514.61
2023-03-07T22:41:13.118Z,96514.86
2023-03-07T22:43:40.352Z,96516.09
2023-03-07T22:46:08.118Z,96509.50
2023-03-07T22:48:35.477Z,96508.01
2023-03-07T22:51:02.613Z,96506.95
2023-03-07T22:53:34.061Z,96505.87
2023-03-07T22:56:01.553Z,96508.20
2023-03-07T22:58:29.868Z,96506.10
2023-03-07T23:00:57.330Z,96502.66
2023-03-07T23:03:24.565Z,96500.27
2023-03-07T23:05:51.435Z,96501.90
2023-03-07T23:08:18.170Z,96502.84
2023-03-07T23:10:45.037Z,96501.11
2023-03-07T23:13:11.795Z,96499.90
2023-03-07T23:15:41.868Z,96505.40
2023-03-07T23:18:09.051Z,96505.80
2023-03-07T23:20:39.102Z,96503.66
2023-03-07T23:23:06.722Z,96500.54
2023-03-07T23:25:34.099Z,96503.31
2023-03-07T23:28:01.263Z,96506.52
2023-03-07T23:30:28.043Z,96508.55
2023-03-07T23:32:55.560Z,96505.80
2023-03-07T23:35:23.982Z,96500.47
2023-03-07T23:37:50.907Z,96504.21
2023-03-07T23:40:17.784Z,96509.23
2023-03-07T23:42:44.544Z,96511.23
2023-03-07T23:45:11.748Z,96514.69
2023-03-07T23:47:39.825Z,96510.16
2023-03-07T23:50:08.698Z,96510.77
2023-03-07T23:52:35.709Z,96511.75
2023-03-07T23:55:02.531Z,96508.18
2023-03-07T23:57:29.228Z,96510.23
2023-03-07T23:59:55.977Z,96512.06
